EWG7CA EDDK-ENBR
Flight info
| Callsign | EWG7CA |
|---|---|
| Flight time | 1h 40m |
| Altitude | 38000 |
| Route | PODIP1R/31R PODIP Y867 PELUN DCT ANZIV DCT WRB DCT TOLGI DCT LUTIR DCT BADAB |
| Aircraft | A320/M-SDE3FGHIRWY/LB1 |
Departure
| Time | 2026-05-06 18:08 |
|---|---|
| Airport | Cologne Bonn Airport (EDDK) |
Arrival
| Time | 2026-05-06 19:49 |
|---|---|
| Airport | Bergen Airport, Flesland (ENBR) |
| Time | Latitude | Longitude | Altitude | Speed | Heading |
|---|---|---|---|---|---|
| 2026-05-06 17:40 | 50.88076 | 7.12134 | 235 ft | 0 kts | 216° |
| 2026-05-06 17:56 | 50.88081 | 7.12139 | 232 ft | 2 kts | 216° |
| 2026-05-06 17:56 | 50.88094 | 7.12154 | 233 ft | 2 kts | 216° |
| 2026-05-06 17:56 | 50.88107 | 7.12169 | 235 ft | 2 kts | 216° |
| 2026-05-06 17:57 | 50.88120 | 7.12184 | 236 ft | 2 kts | 216° |
| 2026-05-06 17:57 | 50.88133 | 7.12199 | 235 ft | 2 kts | 216° |
| 2026-05-06 17:57 | 50.88146 | 7.12214 | 233 ft | 2 kts | 196° |
| 2026-05-06 17:57 | 50.88162 | 7.12217 | 233 ft | 2 kts | 160° |
| 2026-05-06 17:58 | 50.88175 | 7.12203 | 234 ft | 2 kts | 124° |
| 2026-05-06 17:58 | 50.88178 | 7.12196 | 235 ft | 0 kts | 125° |
| 2026-05-06 18:00 | 50.88170 | 7.12212 | 233 ft | 5 kts | 130° |
| 2026-05-06 18:01 | 50.88124 | 7.12280 | 232 ft | 13 kts | 136° |
| 2026-05-06 18:01 | 50.88066 | 7.12391 | 232 ft | 13 kts | 128° |
| 2026-05-06 18:01 | 50.88008 | 7.12484 | 232 ft | 11 kts | 139° |
| 2026-05-06 18:01 | 50.87952 | 7.12563 | 232 ft | 10 kts | 138° |
| 2026-05-06 18:02 | 50.87893 | 7.12610 | 232 ft | 9 kts | 177° |
| 2026-05-06 18:02 | 50.87829 | 7.12624 | 232 ft | 10 kts | 158° |
| 2026-05-06 18:02 | 50.87762 | 7.12707 | 232 ft | 14 kts | 137° |
| 2026-05-06 18:02 | 50.87678 | 7.12830 | 232 ft | 19 kts | 137° |
| 2026-05-06 18:03 | 50.87571 | 7.12985 | 232 ft | 23 kts | 137° |
| 2026-05-06 18:03 | 50.87441 | 7.13172 | 232 ft | 27 kts | 137° |
| 2026-05-06 18:03 | 50.87299 | 7.13379 | 232 ft | 29 kts | 137° |
| 2026-05-06 18:03 | 50.87153 | 7.13589 | 238 ft | 28 kts | 137° |
| 2026-05-06 18:04 | 50.87013 | 7.13792 | 243 ft | 27 kts | 138° |
| 2026-05-06 18:04 | 50.86882 | 7.13982 | 254 ft | 22 kts | 137° |
| 2026-05-06 18:04 | 50.86775 | 7.14127 | 255 ft | 19 kts | 152° |
| 2026-05-06 18:04 | 50.86673 | 7.14219 | 260 ft | 14 kts | 137° |
| 2026-05-06 18:05 | 50.86597 | 7.14330 | 261 ft | 18 kts | 137° |
| 2026-05-06 18:05 | 50.86489 | 7.14491 | 267 ft | 24 kts | 137° |
| 2026-05-06 18:05 | 50.86364 | 7.14673 | 274 ft | 24 kts | 137° |
| 2026-05-06 18:05 | 50.86246 | 7.14845 | 281 ft | 22 kts | 137° |
| 2026-05-06 18:06 | 50.86145 | 7.14991 | 286 ft | 18 kts | 140° |
| 2026-05-06 18:06 | 50.86065 | 7.15108 | 289 ft | 14 kts | 131° |
| 2026-05-06 18:06 | 50.86045 | 7.15237 | 290 ft | 11 kts | 81° |
| 2026-05-06 18:06 | 50.86089 | 7.15335 | 293 ft | 14 kts | 34° |
| 2026-05-06 18:07 | 50.86198 | 7.15346 | 292 ft | 18 kts | 350° |
| 2026-05-06 18:07 | 50.86331 | 7.15305 | 286 ft | 21 kts | 349° |
| 2026-05-06 18:07 | 50.86428 | 7.15253 | 285 ft | 13 kts | 319° |
| 2026-05-06 18:07 | 50.86482 | 7.15179 | 280 ft | 5 kts | 319° |
| 2026-05-06 18:08 | 50.86609 | 7.14997 | 275 ft | 62 kts | 317° |
| 2026-05-06 18:08 | 50.87106 | 7.14278 | 251 ft | 128 kts | 317° |
| 2026-05-06 18:08 | 50.87860 | 7.13163 | 521 ft | 155 kts | 317° |
| 2026-05-06 18:08 | 50.88645 | 7.12014 | 1355 ft | 154 kts | 318° |
| 2026-05-06 18:09 | 50.89585 | 7.11144 | 1883 ft | 170 kts | 354° |
| 2026-05-06 18:09 | 50.90792 | 7.11606 | 2275 ft | 192 kts | 24° |
| 2026-05-06 18:09 | 50.92040 | 7.12577 | 2796 ft | 204 kts | 25° |
| 2026-05-06 18:09 | 50.93292 | 7.13728 | 3557 ft | 212 kts | 40° |
| 2026-05-06 18:10 | 50.94196 | 7.15703 | 4090 ft | 237 kts | 60° |
| 2026-05-06 18:10 | 50.94969 | 7.18151 | 4642 ft | 258 kts | 62° |
| 2026-05-06 18:10 | 50.95763 | 7.20770 | 5470 ft | 267 kts | 62° |
| 2026-05-06 18:10 | 50.96573 | 7.23446 | 6388 ft | 272 kts | 63° |
| 2026-05-06 18:11 | 50.97406 | 7.26172 | 7259 ft | 277 kts | 62° |
| 2026-05-06 18:11 | 50.97970 | 7.27993 | 7697 ft | 279 kts | 62° |
| 2026-05-06 18:11 | 50.99131 | 7.31707 | 8262 ft | 281 kts | 62° |
| 2026-05-06 18:11 | 51.00003 | 7.34489 | 8517 ft | 282 kts | 62° |
| 2026-05-06 18:12 | 51.00869 | 7.37278 | 8779 ft | 283 kts | 64° |
| 2026-05-06 18:12 | 51.01440 | 7.40287 | 9297 ft | 289 kts | 79° |
| 2026-05-06 18:12 | 51.01560 | 7.43494 | 10119 ft | 299 kts | 91° |
| 2026-05-06 18:12 | 51.01194 | 7.46885 | 10432 ft | 325 kts | 105° |
| 2026-05-06 18:13 | 51.00505 | 7.50439 | 10704 ft | 349 kts | 106° |
| 2026-05-06 18:13 | 50.99779 | 7.54136 | 11251 ft | 360 kts | 106° |
| 2026-05-06 18:13 | 50.99025 | 7.57958 | 11953 ft | 365 kts | 108° |
| 2026-05-06 18:13 | 50.98260 | 7.61830 | 12699 ft | 371 kts | 109° |
| 2026-05-06 18:14 | 50.97476 | 7.65769 | 13235 ft | 376 kts | 109° |
| 2026-05-06 18:14 | 50.96687 | 7.69722 | 13492 ft | 377 kts | 109° |
| 2026-05-06 18:14 | 50.95901 | 7.73703 | 13734 ft | 381 kts | 107° |
| 2026-05-06 18:14 | 50.95405 | 7.77939 | 13828 ft | 402 kts | 95° |
| 2026-05-06 18:15 | 50.95513 | 7.82447 | 13842 ft | 414 kts | 81° |
| 2026-05-06 18:15 | 50.96273 | 7.86863 | 13841 ft | 416 kts | 68° |
| 2026-05-06 18:15 | 50.97605 | 7.90929 | 13842 ft | 417 kts | 59° |
| 2026-05-06 18:15 | 50.99086 | 7.94889 | 13836 ft | 417 kts | 59° |
| 2026-05-06 18:16 | 51.00556 | 7.98849 | 13840 ft | 417 kts | 59° |
| 2026-05-06 18:16 | 51.02024 | 8.02825 | 13840 ft | 417 kts | 59° |
| 2026-05-06 18:16 | 51.03485 | 8.06796 | 13834 ft | 418 kts | 59° |
| 2026-05-06 18:16 | 51.04966 | 8.10832 | 14226 ft | 425 kts | 59° |
| 2026-05-06 18:17 | 51.06460 | 8.14910 | 14844 ft | 427 kts | 60° |
| 2026-05-06 18:17 | 51.07957 | 8.19001 | 15455 ft | 430 kts | 60° |
| 2026-05-06 18:17 | 51.09464 | 8.23124 | 16097 ft | 431 kts | 60° |
| 2026-05-06 18:17 | 51.10963 | 8.27240 | 16853 ft | 429 kts | 60° |
| 2026-05-06 18:18 | 51.12454 | 8.31351 | 17651 ft | 428 kts | 60° |
| 2026-05-06 18:18 | 51.13935 | 8.35448 | 18427 ft | 425 kts | 60° |
| 2026-05-06 18:18 | 51.15403 | 8.39515 | 19149 ft | 423 kts | 60° |
| 2026-05-06 18:18 | 51.16866 | 8.43569 | 19839 ft | 422 kts | 60° |
| 2026-05-06 18:19 | 51.18329 | 8.47624 | 20396 ft | 424 kts | 60° |
| 2026-05-06 18:19 | 51.19823 | 8.51698 | 20935 ft | 427 kts | 57° |
| 2026-05-06 18:19 | 51.21607 | 8.55484 | 21456 ft | 429 kts | 50° |
| 2026-05-06 18:19 | 51.23536 | 8.59142 | 21997 ft | 432 kts | 50° |
| 2026-05-06 18:20 | 51.24818 | 8.61573 | 22279 ft | 435 kts | 50° |
| 2026-05-06 18:20 | 51.26776 | 8.65290 | 22736 ft | 439 kts | 50° |
| 2026-05-06 18:20 | 51.28740 | 8.69029 | 23138 ft | 441 kts | 50° |
| 2026-05-06 18:20 | 51.30712 | 8.72795 | 23505 ft | 443 kts | 50° |
| 2026-05-06 18:21 | 51.32691 | 8.76592 | 23915 ft | 445 kts | 50° |
| 2026-05-06 18:21 | 51.34674 | 8.80411 | 24306 ft | 448 kts | 50° |
| 2026-05-06 18:21 | 51.36672 | 8.84266 | 24686 ft | 451 kts | 50° |
| 2026-05-06 18:21 | 51.38678 | 8.88138 | 25067 ft | 454 kts | 50° |
| 2026-05-06 18:22 | 51.40790 | 8.91914 | 25431 ft | 456 kts | 43° |
| 2026-05-06 18:22 | 51.43151 | 8.95340 | 25796 ft | 459 kts | 41° |
| 2026-05-06 18:22 | 51.45527 | 8.98771 | 26170 ft | 462 kts | 41° |
| 2026-05-06 18:22 | 51.47921 | 9.02225 | 26608 ft | 462 kts | 41° |
| 2026-05-06 18:23 | 51.50308 | 9.05672 | 27056 ft | 463 kts | 41° |
| 2026-05-06 18:23 | 51.52704 | 9.09139 | 27424 ft | 464 kts | 41° |
| 2026-05-06 18:23 | 51.55106 | 9.12616 | 27764 ft | 467 kts | 42° |
| 2026-05-06 18:23 | 51.57524 | 9.16120 | 28103 ft | 469 kts | 42° |
| 2026-05-06 18:24 | 51.59953 | 9.19645 | 28429 ft | 471 kts | 42° |
| 2026-05-06 18:24 | 51.64096 | 9.25662 | 28960 ft | 475 kts | 42° |
| 2026-05-06 18:24 | 51.69028 | 9.32840 | 29616 ft | 478 kts | 42° |
| 2026-05-06 18:24 | 51.73879 | 9.39960 | 30702 ft | 469 kts | 42° |
| 2026-05-06 18:25 | 51.78911 | 9.46641 | 31350 ft | 469 kts | 30° |
| 2026-05-06 18:25 | 51.84960 | 9.50398 | 31951 ft | 468 kts | 9° |
| 2026-05-06 18:25 | 51.91420 | 9.50589 | 32594 ft | 464 kts | 348° |
| 2026-05-06 18:25 | 51.97753 | 9.48549 | 33227 ft | 464 kts | 346° |
| 2026-05-06 18:26 | 52.04087 | 9.46512 | 33875 ft | 465 kts | 346° |
| 2026-05-06 18:26 | 52.10446 | 9.44473 | 34456 ft | 465 kts | 346° |
| 2026-05-06 18:26 | 52.16793 | 9.42417 | 35017 ft | 466 kts | 346° |
| 2026-05-06 18:26 | 52.23149 | 9.40343 | 35558 ft | 465 kts | 346° |
| 2026-05-06 18:27 | 52.29495 | 9.38266 | 36072 ft | 466 kts | 346° |
| 2026-05-06 18:27 | 52.35778 | 9.36212 | 36545 ft | 466 kts | 346° |
| 2026-05-06 18:27 | 52.40137 | 9.34787 | 36878 ft | 467 kts | 346° |
| 2026-05-06 18:27 | 52.43316 | 9.33743 | 37108 ft | 467 kts | 346° |
| 2026-05-06 18:28 | 52.46503 | 9.32696 | 37340 ft | 467 kts | 346° |
| 2026-05-06 18:28 | 52.49683 | 9.31652 | 37572 ft | 467 kts | 346° |
| 2026-05-06 18:28 | 52.52871 | 9.30603 | 37789 ft | 467 kts | 346° |
| 2026-05-06 18:28 | 52.56056 | 9.29547 | 37841 ft | 468 kts | 345° |
| 2026-05-06 18:29 | 52.62441 | 9.27420 | 37851 ft | 468 kts | 346° |
| 2026-05-06 18:29 | 52.68821 | 9.25306 | 37861 ft | 468 kts | 346° |
| 2026-05-06 18:30 | 52.75202 | 9.23195 | 37872 ft | 468 kts | 345° |
| 2026-05-06 18:30 | 52.81581 | 9.21067 | 37874 ft | 468 kts | 345° |
| 2026-05-06 18:31 | 52.87960 | 9.18923 | 37882 ft | 468 kts | 345° |
| 2026-05-06 18:31 | 52.94343 | 9.16777 | 37907 ft | 468 kts | 345° |
| 2026-05-06 18:32 | 53.00726 | 9.14617 | 37927 ft | 468 kts | 345° |
| 2026-05-06 18:32 | 53.07115 | 9.12470 | 37917 ft | 468 kts | 346° |
| 2026-05-06 18:33 | 53.13491 | 9.10315 | 37918 ft | 467 kts | 345° |
| 2026-05-06 18:33 | 53.19861 | 9.08139 | 37916 ft | 467 kts | 345° |
| 2026-05-06 18:34 | 53.26229 | 9.05960 | 37915 ft | 467 kts | 345° |
| 2026-05-06 18:34 | 53.32598 | 9.03788 | 37913 ft | 467 kts | 345° |
| 2026-05-06 18:35 | 53.38964 | 9.01600 | 37910 ft | 467 kts | 345° |
| 2026-05-06 18:35 | 53.45293 | 8.99417 | 37918 ft | 467 kts | 345° |
| 2026-05-06 18:36 | 53.51654 | 8.97220 | 37919 ft | 467 kts | 345° |
| 2026-05-06 18:36 | 53.58015 | 8.95022 | 37915 ft | 467 kts | 345° |
| 2026-05-06 18:37 | 53.64379 | 8.92815 | 37912 ft | 467 kts | 345° |
| 2026-05-06 18:37 | 53.70743 | 8.90600 | 37920 ft | 467 kts | 345° |
| 2026-05-06 18:38 | 53.77104 | 8.88382 | 37931 ft | 467 kts | 345° |
| 2026-05-06 18:38 | 53.83461 | 8.86148 | 37923 ft | 466 kts | 345° |
| 2026-05-06 18:39 | 53.89809 | 8.83910 | 37920 ft | 466 kts | 345° |
| 2026-05-06 18:40 | 53.99318 | 8.80551 | 37930 ft | 465 kts | 345° |
| 2026-05-06 18:40 | 54.05649 | 8.78316 | 37921 ft | 464 kts | 345° |
| 2026-05-06 18:41 | 54.11981 | 8.76054 | 37924 ft | 464 kts | 345° |
| 2026-05-06 18:41 | 54.15141 | 8.74920 | 37783 ft | 464 kts | 345° |
| 2026-05-06 18:41 | 54.18304 | 8.73788 | 37583 ft | 464 kts | 345° |
| 2026-05-06 18:41 | 54.21456 | 8.72665 | 37369 ft | 463 kts | 345° |
| 2026-05-06 18:42 | 54.24612 | 8.71542 | 37158 ft | 463 kts | 345° |
| 2026-05-06 18:42 | 54.27759 | 8.70417 | 36948 ft | 462 kts | 345° |
| 2026-05-06 18:42 | 54.30910 | 8.69282 | 36738 ft | 462 kts | 345° |
| 2026-05-06 18:42 | 54.34015 | 8.68158 | 36530 ft | 462 kts | 345° |
| 2026-05-06 18:43 | 54.37153 | 8.67027 | 36330 ft | 461 kts | 345° |
| 2026-05-06 18:43 | 54.40296 | 8.65895 | 36128 ft | 461 kts | 345° |
| 2026-05-06 18:43 | 54.43430 | 8.64765 | 35922 ft | 461 kts | 345° |
| 2026-05-06 18:44 | 54.49698 | 8.62499 | 35928 ft | 461 kts | 345° |
| 2026-05-06 18:44 | 54.55974 | 8.60219 | 35939 ft | 461 kts | 345° |
| 2026-05-06 18:45 | 54.62255 | 8.57929 | 35939 ft | 461 kts | 345° |
| 2026-05-06 18:45 | 54.68525 | 8.55629 | 35944 ft | 461 kts | 345° |
| 2026-05-06 18:46 | 54.74798 | 8.53326 | 35940 ft | 461 kts | 345° |
| 2026-05-06 18:46 | 54.81071 | 8.51018 | 35945 ft | 461 kts | 344° |
| 2026-05-06 18:47 | 54.87343 | 8.48694 | 35951 ft | 461 kts | 344° |
| 2026-05-06 18:47 | 54.93615 | 8.46370 | 35950 ft | 461 kts | 344° |
| 2026-05-06 18:48 | 54.99892 | 8.44045 | 35951 ft | 461 kts | 344° |
| 2026-05-06 18:48 | 55.06111 | 8.41717 | 35948 ft | 460 kts | 343° |
| 2026-05-06 18:49 | 55.12267 | 8.38810 | 35949 ft | 457 kts | 339° |
| 2026-05-06 18:49 | 55.18316 | 8.35390 | 35955 ft | 457 kts | 338° |
| 2026-05-06 18:50 | 55.24364 | 8.31960 | 35975 ft | 457 kts | 338° |
| 2026-05-06 18:50 | 55.30440 | 8.28662 | 35967 ft | 457 kts | 339° |
| 2026-05-06 18:51 | 55.36524 | 8.25419 | 36252 ft | 457 kts | 339° |
| 2026-05-06 18:51 | 55.39568 | 8.23785 | 36514 ft | 457 kts | 339° |
| 2026-05-06 18:51 | 55.42609 | 8.22141 | 36779 ft | 457 kts | 339° |
| 2026-05-06 18:51 | 55.45641 | 8.20496 | 37032 ft | 456 kts | 339° |
| 2026-05-06 18:52 | 55.48677 | 8.18841 | 37305 ft | 456 kts | 339° |
| 2026-05-06 18:52 | 55.51701 | 8.17186 | 37607 ft | 455 kts | 339° |
| 2026-05-06 18:52 | 55.54728 | 8.15530 | 37868 ft | 455 kts | 339° |
| 2026-05-06 18:52 | 55.57763 | 8.13869 | 37977 ft | 458 kts | 339° |
| 2026-05-06 18:53 | 55.60805 | 8.12201 | 37981 ft | 459 kts | 339° |
| 2026-05-06 18:53 | 55.66898 | 8.08835 | 37983 ft | 459 kts | 339° |
| 2026-05-06 18:54 | 55.72993 | 8.05462 | 37997 ft | 459 kts | 339° |
| 2026-05-06 18:54 | 55.79093 | 8.02098 | 37995 ft | 459 kts | 339° |
| 2026-05-06 18:55 | 55.85198 | 7.98719 | 37989 ft | 459 kts | 339° |
| 2026-05-06 18:55 | 55.91296 | 7.95332 | 37995 ft | 459 kts | 339° |
| 2026-05-06 18:56 | 55.97391 | 7.91922 | 38020 ft | 459 kts | 338° |
| 2026-05-06 18:56 | 56.03483 | 7.88501 | 38024 ft | 459 kts | 338° |
| 2026-05-06 18:57 | 56.09567 | 7.85059 | 38042 ft | 459 kts | 338° |
| 2026-05-06 18:57 | 56.15655 | 7.81625 | 38037 ft | 459 kts | 338° |
| 2026-05-06 18:58 | 56.21704 | 7.78212 | 38041 ft | 459 kts | 338° |
| 2026-05-06 18:58 | 56.27795 | 7.74751 | 38028 ft | 459 kts | 338° |
| 2026-05-06 18:59 | 56.33872 | 7.71272 | 38046 ft | 458 kts | 338° |
| 2026-05-06 18:59 | 56.39949 | 7.67795 | 38039 ft | 458 kts | 338° |
| 2026-05-06 19:00 | 56.46026 | 7.64323 | 38032 ft | 458 kts | 338° |
| 2026-05-06 19:00 | 56.52097 | 7.60823 | 38036 ft | 458 kts | 338° |
| 2026-05-06 19:01 | 56.58164 | 7.57316 | 38036 ft | 458 kts | 338° |
| 2026-05-06 19:01 | 56.64227 | 7.53806 | 38043 ft | 457 kts | 338° |
| 2026-05-06 19:02 | 56.70275 | 7.50277 | 38039 ft | 456 kts | 338° |
| 2026-05-06 19:02 | 56.76317 | 7.46748 | 38042 ft | 456 kts | 338° |
| 2026-05-06 19:03 | 56.82360 | 7.43217 | 38036 ft | 456 kts | 338° |
| 2026-05-06 19:03 | 56.88400 | 7.39655 | 38034 ft | 456 kts | 338° |
| 2026-05-06 19:04 | 56.94440 | 7.36086 | 38049 ft | 456 kts | 338° |
| 2026-05-06 19:04 | 57.00475 | 7.32506 | 38035 ft | 456 kts | 338° |
| 2026-05-06 19:05 | 57.06474 | 7.28954 | 38030 ft | 456 kts | 338° |
| 2026-05-06 19:05 | 57.12505 | 7.25367 | 38030 ft | 456 kts | 337° |
| 2026-05-06 19:06 | 57.18537 | 7.21759 | 38057 ft | 456 kts | 337° |
| 2026-05-06 19:06 | 57.24570 | 7.18142 | 38045 ft | 456 kts | 337° |
| 2026-05-06 19:07 | 57.30599 | 7.14519 | 38063 ft | 455 kts | 337° |
| 2026-05-06 19:07 | 57.36616 | 7.10877 | 38051 ft | 455 kts | 337° |
| 2026-05-06 19:08 | 57.42622 | 7.07223 | 38029 ft | 454 kts | 337° |
| 2026-05-06 19:08 | 57.48629 | 7.03569 | 38053 ft | 454 kts | 337° |
| 2026-05-06 19:09 | 57.54626 | 6.99923 | 38036 ft | 453 kts | 337° |
| 2026-05-06 19:09 | 57.59606 | 6.96883 | 38045 ft | 453 kts | 337° |
| 2026-05-06 19:10 | 57.65589 | 6.93208 | 38031 ft | 453 kts | 337° |
| 2026-05-06 19:10 | 57.71580 | 6.89568 | 38032 ft | 453 kts | 338° |
| 2026-05-06 19:11 | 57.77665 | 6.86374 | 38052 ft | 455 kts | 341° |
| 2026-05-06 19:11 | 57.83793 | 6.83415 | 38042 ft | 455 kts | 341° |
| 2026-05-06 19:12 | 57.89911 | 6.80397 | 38045 ft | 454 kts | 340° |
| 2026-05-06 19:12 | 57.96014 | 6.77252 | 38041 ft | 454 kts | 340° |
| 2026-05-06 19:13 | 58.02105 | 6.74078 | 38048 ft | 454 kts | 340° |
| 2026-05-06 19:13 | 58.08186 | 6.70917 | 38028 ft | 453 kts | 340° |
| 2026-05-06 19:14 | 58.14260 | 6.67769 | 38024 ft | 453 kts | 340° |
| 2026-05-06 19:14 | 58.20337 | 6.64611 | 38037 ft | 453 kts | 340° |
| 2026-05-06 19:15 | 58.26418 | 6.61446 | 38039 ft | 453 kts | 340° |
| 2026-05-06 19:15 | 58.32500 | 6.58257 | 38061 ft | 454 kts | 340° |
| 2026-05-06 19:16 | 58.38586 | 6.55023 | 38044 ft | 454 kts | 340° |
| 2026-05-06 19:16 | 58.44629 | 6.51824 | 38054 ft | 454 kts | 340° |
| 2026-05-06 19:17 | 58.50721 | 6.48590 | 38058 ft | 455 kts | 340° |
| 2026-05-06 19:17 | 58.56816 | 6.45354 | 38062 ft | 455 kts | 340° |
| 2026-05-06 19:18 | 58.62916 | 6.42108 | 38066 ft | 455 kts | 340° |
| 2026-05-06 19:18 | 58.69012 | 6.38834 | 38069 ft | 455 kts | 340° |
| 2026-05-06 19:19 | 58.75108 | 6.35554 | 38064 ft | 455 kts | 340° |
| 2026-05-06 19:19 | 58.81209 | 6.32263 | 38066 ft | 455 kts | 340° |
| 2026-05-06 19:20 | 58.87297 | 6.28961 | 38081 ft | 454 kts | 340° |
| 2026-05-06 19:20 | 58.93366 | 6.25664 | 38053 ft | 452 kts | 339° |
| 2026-05-06 19:21 | 58.99414 | 6.22369 | 38054 ft | 452 kts | 339° |
| 2026-05-06 19:21 | 59.05457 | 6.19050 | 37897 ft | 451 kts | 339° |
| 2026-05-06 19:21 | 59.08476 | 6.17385 | 37230 ft | 450 kts | 339° |
| 2026-05-06 19:22 | 59.11480 | 6.15728 | 36566 ft | 449 kts | 339° |
| 2026-05-06 19:22 | 59.14482 | 6.14073 | 35914 ft | 447 kts | 339° |
| 2026-05-06 19:22 | 59.17464 | 6.12424 | 35336 ft | 445 kts | 338° |
| 2026-05-06 19:22 | 59.20439 | 6.10775 | 34693 ft | 443 kts | 338° |
| 2026-05-06 19:23 | 59.23403 | 6.09128 | 34067 ft | 442 kts | 338° |
| 2026-05-06 19:23 | 59.26348 | 6.07487 | 33284 ft | 440 kts | 337° |
| 2026-05-06 19:23 | 59.29257 | 6.05859 | 32426 ft | 441 kts | 337° |
| 2026-05-06 19:23 | 59.32248 | 6.04181 | 31453 ft | 443 kts | 336° |
| 2026-05-06 19:24 | 59.35181 | 6.02536 | 30547 ft | 445 kts | 336° |
| 2026-05-06 19:24 | 59.38162 | 6.00868 | 29518 ft | 447 kts | 336° |
| 2026-05-06 19:24 | 59.41159 | 5.99187 | 28414 ft | 448 kts | 336° |
| 2026-05-06 19:24 | 59.44156 | 5.97502 | 27461 ft | 446 kts | 336° |
| 2026-05-06 19:25 | 59.47112 | 5.95851 | 26820 ft | 438 kts | 336° |
| 2026-05-06 19:25 | 59.50024 | 5.94222 | 26121 ft | 431 kts | 336° |
| 2026-05-06 19:25 | 59.52883 | 5.92614 | 25422 ft | 425 kts | 336° |
| 2026-05-06 19:25 | 59.55704 | 5.91015 | 24755 ft | 419 kts | 336° |
| 2026-05-06 19:26 | 59.58476 | 5.89437 | 24114 ft | 412 kts | 336° |
| 2026-05-06 19:26 | 59.61216 | 5.87876 | 23450 ft | 407 kts | 336° |
| 2026-05-06 19:26 | 59.63920 | 5.86335 | 22711 ft | 402 kts | 336° |
| 2026-05-06 19:26 | 59.66610 | 5.84920 | 21966 ft | 402 kts | 341° |
| 2026-05-06 19:27 | 59.69397 | 5.84195 | 21268 ft | 404 kts | 347° |
| 2026-05-06 19:27 | 59.72176 | 5.83744 | 20838 ft | 395 kts | 347° |
| 2026-05-06 19:27 | 59.74860 | 5.83326 | 20705 ft | 378 kts | 347° |
| 2026-05-06 19:27 | 59.77432 | 5.82928 | 20612 ft | 363 kts | 347° |
| 2026-05-06 19:28 | 59.79895 | 5.82535 | 20482 ft | 349 kts | 346° |
| 2026-05-06 19:28 | 59.82267 | 5.82106 | 20341 ft | 333 kts | 342° |
| 2026-05-06 19:28 | 59.84490 | 5.81324 | 20190 ft | 319 kts | 340° |
| 2026-05-06 19:28 | 59.86660 | 5.80526 | 19889 ft | 315 kts | 340° |
| 2026-05-06 19:29 | 59.88802 | 5.79737 | 19555 ft | 312 kts | 340° |
| 2026-05-06 19:29 | 59.90934 | 5.78954 | 19220 ft | 310 kts | 341° |
| 2026-05-06 19:29 | 59.93048 | 5.78187 | 18837 ft | 308 kts | 341° |
| 2026-05-06 19:29 | 59.95156 | 5.77426 | 18464 ft | 307 kts | 341° |
| 2026-05-06 19:30 | 59.97252 | 5.76672 | 18059 ft | 305 kts | 341° |
| 2026-05-06 19:30 | 59.99332 | 5.75925 | 17663 ft | 303 kts | 341° |
| 2026-05-06 19:30 | 60.01404 | 5.75178 | 17289 ft | 301 kts | 341° |
| 2026-05-06 19:30 | 60.03456 | 5.74436 | 16909 ft | 299 kts | 341° |
| 2026-05-06 19:31 | 60.05474 | 5.73701 | 16593 ft | 298 kts | 341° |
| 2026-05-06 19:31 | 60.07528 | 5.72949 | 16202 ft | 296 kts | 342° |
| 2026-05-06 19:31 | 60.11536 | 5.71486 | 15480 ft | 293 kts | 342° |
| 2026-05-06 19:32 | 60.13537 | 5.70765 | 15135 ft | 292 kts | 343° |
| 2026-05-06 19:32 | 60.15546 | 5.70129 | 14783 ft | 292 kts | 345° |
| 2026-05-06 19:32 | 60.17552 | 5.69572 | 14447 ft | 291 kts | 346° |
| 2026-05-06 19:32 | 60.19555 | 5.69042 | 14095 ft | 289 kts | 347° |
| 2026-05-06 19:33 | 60.21547 | 5.68516 | 13706 ft | 288 kts | 347° |
| 2026-05-06 19:33 | 60.23533 | 5.67985 | 13310 ft | 287 kts | 347° |
| 2026-05-06 19:33 | 60.25504 | 5.67448 | 12978 ft | 284 kts | 347° |
| 2026-05-06 19:33 | 60.27434 | 5.66912 | 12784 ft | 278 kts | 347° |
| 2026-05-06 19:34 | 60.29332 | 5.66380 | 12558 ft | 272 kts | 347° |
| 2026-05-06 19:34 | 60.31188 | 5.65856 | 12337 ft | 267 kts | 347° |
| 2026-05-06 19:34 | 60.33017 | 5.65339 | 12125 ft | 263 kts | 347° |
| 2026-05-06 19:34 | 60.34809 | 5.64831 | 11923 ft | 258 kts | 348° |
| 2026-05-06 19:35 | 60.36570 | 5.64328 | 11717 ft | 253 kts | 348° |
| 2026-05-06 19:35 | 60.38303 | 5.63833 | 11483 ft | 250 kts | 348° |
| 2026-05-06 19:35 | 60.40016 | 5.63344 | 11182 ft | 248 kts | 348° |
| 2026-05-06 19:35 | 60.41726 | 5.62860 | 10877 ft | 247 kts | 349° |
| 2026-05-06 19:36 | 60.43424 | 5.62380 | 10586 ft | 246 kts | 349° |
| 2026-05-06 19:36 | 60.45118 | 5.61899 | 10287 ft | 245 kts | 349° |
| 2026-05-06 19:36 | 60.46802 | 5.61420 | 9977 ft | 244 kts | 349° |
| 2026-05-06 19:36 | 60.48496 | 5.61158 | 9623 ft | 245 kts | 358° |
| 2026-05-06 19:37 | 60.50199 | 5.61216 | 9300 ft | 244 kts | 358° |
| 2026-05-06 19:37 | 60.51890 | 5.61268 | 8967 ft | 243 kts | 358° |
| 2026-05-06 19:37 | 60.53565 | 5.61118 | 8614 ft | 239 kts | 347° |
| 2026-05-06 19:37 | 60.54620 | 5.60553 | 8388 ft | 236 kts | 338° |
| 2026-05-06 19:38 | 60.56685 | 5.59061 | 7913 ft | 235 kts | 338° |
| 2026-05-06 19:38 | 60.58216 | 5.57958 | 7652 ft | 231 kts | 335° |
| 2026-05-06 19:38 | 60.59589 | 5.56409 | 7385 ft | 223 kts | 320° |
| 2026-05-06 19:38 | 60.60765 | 5.54457 | 7136 ft | 219 kts | 319° |
| 2026-05-06 19:39 | 60.61919 | 5.52524 | 7008 ft | 211 kts | 316° |
| 2026-05-06 19:39 | 60.62817 | 5.50196 | 6815 ft | 208 kts | 300° |
| 2026-05-06 19:39 | 60.63544 | 5.47653 | 6618 ft | 208 kts | 298° |
| 2026-05-06 19:39 | 60.64247 | 5.45082 | 6386 ft | 207 kts | 297° |
| 2026-05-06 19:40 | 60.64957 | 5.42546 | 6126 ft | 205 kts | 297° |
| 2026-05-06 19:40 | 60.65567 | 5.39966 | 6011 ft | 201 kts | 278° |
| 2026-05-06 19:40 | 60.65405 | 5.37190 | 6007 ft | 201 kts | 243° |
| 2026-05-06 19:40 | 60.64524 | 5.34971 | 6010 ft | 204 kts | 225° |
| 2026-05-06 19:41 | 60.63477 | 5.33028 | 5880 ft | 201 kts | 223° |
| 2026-05-06 19:41 | 60.62437 | 5.31185 | 5731 ft | 196 kts | 223° |
| 2026-05-06 19:41 | 60.61416 | 5.29388 | 5606 ft | 191 kts | 223° |
| 2026-05-06 19:41 | 60.60417 | 5.27641 | 5447 ft | 188 kts | 223° |
| 2026-05-06 19:42 | 60.59431 | 5.25911 | 5226 ft | 187 kts | 223° |
| 2026-05-06 19:42 | 60.58445 | 5.24183 | 5022 ft | 187 kts | 223° |
| 2026-05-06 19:42 | 60.57465 | 5.22463 | 4830 ft | 186 kts | 223° |
| 2026-05-06 19:42 | 60.56485 | 5.20744 | 4622 ft | 185 kts | 223° |
| 2026-05-06 19:43 | 60.55510 | 5.19034 | 4408 ft | 185 kts | 223° |
| 2026-05-06 19:43 | 60.54537 | 5.17317 | 4198 ft | 185 kts | 223° |
| 2026-05-06 19:43 | 60.53560 | 5.15621 | 4005 ft | 185 kts | 217° |
| 2026-05-06 19:43 | 60.52393 | 5.14522 | 3802 ft | 187 kts | 194° |
| 2026-05-06 19:44 | 60.51091 | 5.14447 | 3590 ft | 189 kts | 172° |
| 2026-05-06 19:44 | 60.49793 | 5.14891 | 3383 ft | 190 kts | 172° |
| 2026-05-06 19:44 | 60.48520 | 5.15328 | 3264 ft | 180 kts | 172° |
| 2026-05-06 19:44 | 60.47319 | 5.15738 | 3121 ft | 171 kts | 172° |
| 2026-05-06 19:45 | 60.46160 | 5.16131 | 3050 ft | 167 kts | 172° |
| 2026-05-06 19:45 | 60.45019 | 5.16518 | 3009 ft | 165 kts | 172° |
| 2026-05-06 19:45 | 60.43884 | 5.16903 | 2920 ft | 166 kts | 172° |
| 2026-05-06 19:45 | 60.42749 | 5.17287 | 2734 ft | 165 kts | 172° |
| 2026-05-06 19:46 | 60.41620 | 5.17670 | 2528 ft | 164 kts | 172° |
| 2026-05-06 19:46 | 60.40496 | 5.18050 | 2286 ft | 163 kts | 172° |
| 2026-05-06 19:46 | 60.39377 | 5.18429 | 2069 ft | 162 kts | 172° |
| 2026-05-06 19:46 | 60.38263 | 5.18805 | 1833 ft | 162 kts | 172° |
| 2026-05-06 19:47 | 60.37166 | 5.19176 | 1615 ft | 161 kts | 172° |
| 2026-05-06 19:47 | 60.36057 | 5.19551 | 1398 ft | 155 kts | 172° |
| 2026-05-06 19:47 | 60.35036 | 5.19895 | 1186 ft | 145 kts | 172° |
| 2026-05-06 19:47 | 60.34064 | 5.20223 | 959 ft | 139 kts | 172° |
| 2026-05-06 19:48 | 60.33122 | 5.20543 | 763 ft | 135 kts | 172° |
| 2026-05-06 19:48 | 60.32204 | 5.20859 | 580 ft | 133 kts | 171° |
| 2026-05-06 19:48 | 60.31295 | 5.21165 | 393 ft | 132 kts | 173° |
| 2026-05-06 19:48 | 60.30394 | 5.21468 | 224 ft | 130 kts | 172° |
| 2026-05-06 19:49 | 60.29557 | 5.21741 | 148 ft | 105 kts | 170° |
| 2026-05-06 19:49 | 60.29005 | 5.21928 | 163 ft | 56 kts | 171° |
| 2026-05-06 19:49 | 60.28771 | 5.22007 | 163 ft | 23 kts | 170° |
| 2026-05-06 19:49 | 60.28668 | 5.22112 | 161 ft | 14 kts | 102° |
| 2026-05-06 19:50 | 60.28677 | 5.22257 | 165 ft | 2 kts | 78° |
| 2026-05-06 19:50 | 60.28678 | 5.22260 | 165 ft | 0 kts | 78° |
| 2026-05-06 19:51 | 60.28678 | 5.22267 | 165 ft | 2 kts | 78° |
| 2026-05-06 19:51 | 60.28684 | 5.22330 | 167 ft | 7 kts | 81° |
| 2026-05-06 19:51 | 60.28697 | 5.22442 | 171 ft | 7 kts | 58° |
| 2026-05-06 19:51 | 60.28721 | 5.22467 | 173 ft | 3 kts | 12° |
| 2026-05-06 19:52 | 60.28754 | 5.22458 | 174 ft | 7 kts | 349° |
| 2026-05-06 19:52 | 60.28821 | 5.22433 | 175 ft | 12 kts | 350° |
| 2026-05-06 19:52 | 60.28896 | 5.22407 | 175 ft | 10 kts | 349° |
| 2026-05-06 19:52 | 60.28947 | 5.22419 | 175 ft | 6 kts | 61° |
| 2026-05-06 19:53 | 60.28940 | 5.22493 | 175 ft | 5 kts | 107° |
| 2026-05-06 19:53 | 60.28932 | 5.22550 | 175 ft | 2 kts | 107° |
| 2026-05-06 19:53 | 60.28931 | 5.22551 | 175 ft | 0 kts | 107° |